sensor_id;sensor_type;location;lat;lon;timestamp;P1;durP1;ratioP1;P2;durP2;ratioP2
50968;SDS011;36982;51.474;7.228;2024-03-17T00:02:05;7.07;;;1.87;;
50968;SDS011;36982;51.474;7.228;2024-03-17T00:04:31;3.37;;;1.60;;
50968;SDS011;36982;51.474;7.228;2024-03-17T00:06:57;2.97;;;1.77;;
50968;SDS011;36982;51.474;7.228;2024-03-17T00:09:22;3.37;;;2.10;;
50968;SDS011;36982;51.474;7.228;2024-03-17T00:11:49;2.30;;;1.90;;
50968;SDS011;36982;51.474;7.228;2024-03-17T00:14:15;3.00;;;2.00;;
50968;SDS011;36982;51.474;7.228;2024-03-17T00:16:41;4.87;;;2.00;;
50968;SDS011;36982;51.474;7.228;2024-03-17T00:19:06;3.53;;;1.90;;
50968;SDS011;36982;51.474;7.228;2024-03-17T00:21:32;4.07;;;1.93;;
50968;SDS011;36982;51.474;7.228;2024-03-17T00:23:57;6.13;;;2.13;;
50968;SDS011;36982;51.474;7.228;2024-03-17T00:26:23;3.83;;;1.97;;
50968;SDS011;36982;51.474;7.228;2024-03-17T00:28:49;3.77;;;1.90;;
50968;SDS011;36982;51.474;7.228;2024-03-17T00:31:16;5.53;;;2.20;;
50968;SDS011;36982;51.474;7.228;2024-03-17T00:33:41;2.77;;;1.77;;
50968;SDS011;36982;51.474;7.228;2024-03-17T00:36:07;5.10;;;2.50;;
50968;SDS011;36982;51.474;7.228;2024-03-17T00:38:33;3.60;;;2.00;;
50968;SDS011;36982;51.474;7.228;2024-03-17T00:40:59;3.60;;;2.00;;
50968;SDS011;36982;51.474;7.228;2024-03-17T00:43:24;3.03;;;1.87;;
50968;SDS011;36982;51.474;7.228;2024-03-17T00:45:53;8.00;;;1.90;;
50968;SDS011;36982;51.474;7.228;2024-03-17T00:48:19;2.73;;;1.87;;
50968;SDS011;36982;51.474;7.228;2024-03-17T00:50:45;3.13;;;1.70;;
50968;SDS011;36982;51.474;7.228;2024-03-17T00:53:11;5.57;;;2.37;;
50968;SDS011;36982;51.474;7.228;2024-03-17T00:55:37;3.07;;;1.77;;
50968;SDS011;36982;51.474;7.228;2024-03-17T00:58:02;5.60;;;2.40;;
50968;SDS011;36982;51.474;7.228;2024-03-17T01:00:28;5.47;;;2.00;;
50968;SDS011;36982;51.474;7.228;2024-03-17T01:02:54;4.83;;;1.93;;
50968;SDS011;36982;51.474;7.228;2024-03-17T01:05:20;5.93;;;1.90;;
50968;SDS011;36982;51.474;7.228;2024-03-17T01:07:45;4.17;;;2.00;;
50968;SDS011;36982;51.474;7.228;2024-03-17T01:10:13;3.80;;;1.77;;
50968;SDS011;36982;51.474;7.228;2024-03-17T01:12:38;3.27;;;1.70;;
50968;SDS011;36982;51.474;7.228;2024-03-17T01:15:05;4.03;;;1.90;;
50968;SDS011;36982;51.474;7.228;2024-03-17T01:17:31;3.13;;;1.77;;
50968;SDS011;36982;51.474;7.228;2024-03-17T01:19:57;6.47;;;2.53;;
50968;SDS011;36982;51.474;7.228;2024-03-17T01:22:29;5.70;;;2.23;;
50968;SDS011;36982;51.474;7.228;2024-03-17T01:24:54;4.57;;;2.53;;
50968;SDS011;36982;51.474;7.228;2024-03-17T01:27:20;3.40;;;2.27;;
50968;SDS011;36982;51.474;7.228;2024-03-17T01:29:46;3.77;;;2.10;;
50968;SDS011;36982;51.474;7.228;2024-03-17T01:32:11;5.27;;;3.03;;
50968;SDS011;36982;51.474;7.228;2024-03-17T01:34:37;3.47;;;2.50;;
50968;SDS011;36982;51.474;7.228;2024-03-17T01:37:03;4.23;;;2.57;;
50968;SDS011;36982;51.474;7.228;2024-03-17T01:39:29;3.70;;;2.57;;
50968;SDS011;36982;51.474;7.228;2024-03-17T01:41:56;5.23;;;2.30;;
50968;SDS011;36982;51.474;7.228;2024-03-17T01:44:23;5.47;;;2.50;;
50968;SDS011;36982;51.474;7.228;2024-03-17T01:46:51;5.60;;;2.70;;
50968;SDS011;36982;51.474;7.228;2024-03-17T01:49:18;3.67;;;2.30;;
50968;SDS011;36982;51.474;7.228;2024-03-17T01:51:45;4.73;;;2.63;;
50968;SDS011;36982;51.474;7.228;2024-03-17T01:54:11;3.63;;;2.47;;
50968;SDS011;36982;51.474;7.228;2024-03-17T01:56:38;5.83;;;2.40;;
50968;SDS011;36982;51.474;7.228;2024-03-17T01:59:05;3.53;;;1.80;;
50968;SDS011;36982;51.474;7.228;2024-03-17T02:01:32;4.03;;;2.47;;
50968;SDS011;36982;51.474;7.228;2024-03-17T02:03:58;4.97;;;2.37;;
50968;SDS011;36982;51.474;7.228;2024-03-17T02:06:24;2.93;;;1.93;;
50968;SDS011;36982;51.474;7.228;2024-03-17T02:08:50;5.83;;;2.57;;
50968;SDS011;36982;51.474;7.228;2024-03-17T02:13:50;4.97;;;2.10;;
50968;SDS011;36982;51.474;7.228;2024-03-17T02:16:16;2.90;;;2.00;;
50968;SDS011;36982;51.474;7.228;2024-03-17T02:18:42;3.60;;;2.03;;
50968;SDS011;36982;51.474;7.228;2024-03-17T02:21:07;10.27;;;2.20;;
50968;SDS011;36982;51.474;7.228;2024-03-17T02:23:34;4.20;;;2.10;;
50968;SDS011;36982;51.474;7.228;2024-03-17T02:25:59;4.53;;;2.27;;
50968;SDS011;36982;51.474;7.228;2024-03-17T02:28:25;3.03;;;1.80;;
50968;SDS011;36982;51.474;7.228;2024-03-17T02:30:51;2.93;;;2.03;;
50968;SDS011;36982;51.474;7.228;2024-03-17T02:33:16;4.60;;;1.87;;
50968;SDS011;36982;51.474;7.228;2024-03-17T02:35:42;3.27;;;1.93;;
50968;SDS011;36982;51.474;7.228;2024-03-17T02:38:09;4.73;;;2.00;;
50968;SDS011;36982;51.474;7.228;2024-03-17T02:40:40;3.77;;;2.30;;
50968;SDS011;36982;51.474;7.228;2024-03-17T02:43:05;3.70;;;2.27;;
50968;SDS011;36982;51.474;7.228;2024-03-17T02:45:31;4.27;;;1.83;;
50968;SDS011;36982;51.474;7.228;2024-03-17T02:47:57;3.63;;;2.00;;
50968;SDS011;36982;51.474;7.228;2024-03-17T02:50:22;3.20;;;2.30;;
50968;SDS011;36982;51.474;7.228;2024-03-17T02:52:48;3.43;;;1.90;;
50968;SDS011;36982;51.474;7.228;2024-03-17T02:55:14;3.00;;;1.90;;
50968;SDS011;36982;51.474;7.228;2024-03-17T02:57:39;4.20;;;1.83;;
50968;SDS011;36982;51.474;7.228;2024-03-17T03:00:05;3.57;;;2.13;;
50968;SDS011;36982;51.474;7.228;2024-03-17T03:02:34;3.00;;;1.77;;
50968;SDS011;36982;51.474;7.228;2024-03-17T03:04:59;4.43;;;2.23;;
50968;SDS011;36982;51.474;7.228;2024-03-17T03:07:25;4.13;;;2.30;;
50968;SDS011;36982;51.474;7.228;2024-03-17T03:09:51;3.53;;;2.00;;
50968;SDS011;36982;51.474;7.228;2024-03-17T03:12:16;3.17;;;1.87;;
50968;SDS011;36982;51.474;7.228;2024-03-17T03:14:42;2.47;;;1.83;;
50968;SDS011;36982;51.474;7.228;2024-03-17T03:17:07;4.87;;;2.03;;
50968;SDS011;36982;51.474;7.228;2024-03-17T03:19:33;3.20;;;1.87;;
50968;SDS011;36982;51.474;7.228;2024-03-17T03:21:59;2.97;;;1.90;;
50968;SDS011;36982;51.474;7.228;2024-03-17T03:24:25;7.17;;;2.50;;
50968;SDS011;36982;51.474;7.228;2024-03-17T03:26:51;4.30;;;2.20;;
50968;SDS011;36982;51.474;7.228;2024-03-17T03:29:17;5.97;;;1.93;;
50968;SDS011;36982;51.474;7.228;2024-03-17T03:31:44;4.77;;;2.50;;
50968;SDS011;36982;51.474;7.228;2024-03-17T03:34:10;5.30;;;2.03;;
50968;SDS011;36982;51.474;7.228;2024-03-17T03:36:37;2.93;;;1.97;;
50968;SDS011;36982;51.474;7.228;2024-03-17T03:39:03;3.77;;;2.40;;
50968;SDS011;36982;51.474;7.228;2024-03-17T03:41:36;3.03;;;1.80;;
50968;SDS011;36982;51.474;7.228;2024-03-17T03:44:01;4.07;;;2.37;;
50968;SDS011;36982;51.474;7.228;2024-03-17T03:46:27;2.90;;;1.90;;
50968;SDS011;36982;51.474;7.228;2024-03-17T03:48:53;4.40;;;2.30;;
50968;SDS011;36982;51.474;7.228;2024-03-17T03:51:18;4.30;;;2.20;;
50968;SDS011;36982;51.474;7.228;2024-03-17T03:53:44;2.23;;;1.73;;
50968;SDS011;36982;51.474;7.228;2024-03-17T03:56:10;3.87;;;2.37;;
50968;SDS011;36982;51.474;7.228;2024-03-17T03:58:39;5.47;;;2.07;;
50968;SDS011;36982;51.474;7.228;2024-03-17T04:01:09;4.13;;;2.30;;
50968;SDS011;36982;51.474;7.228;2024-03-17T04:03:36;4.87;;;2.47;;
50968;SDS011;36982;51.474;7.228;2024-03-17T04:06:03;4.13;;;2.30;;
50968;SDS011;36982;51.474;7.228;2024-03-17T04:08:30;3.33;;;2.20;;
50968;SDS011;36982;51.474;7.228;2024-03-17T04:10:56;4.83;;;2.23;;
50968;SDS011;36982;51.474;7.228;2024-03-17T04:13:21;5.10;;;2.37;;
50968;SDS011;36982;51.474;7.228;2024-03-17T04:15:47;3.73;;;2.20;;
50968;SDS011;36982;51.474;7.228;2024-03-17T04:18:13;3.83;;;2.43;;
50968;SDS011;36982;51.474;7.228;2024-03-17T04:20:40;4.47;;;2.50;;
50968;SDS011;36982;51.474;7.228;2024-03-17T04:23:06;4.30;;;2.50;;
50968;SDS011;36982;51.474;7.228;2024-03-17T04:25:32;3.73;;;2.47;;
50968;SDS011;36982;51.474;7.228;2024-03-17T04:27:58;7.00;;;3.00;;
50968;SDS011;36982;51.474;7.228;2024-03-17T04:30:24;5.17;;;2.80;;
50968;SDS011;36982;51.474;7.228;2024-03-17T04:32:49;8.53;;;3.10;;
50968;SDS011;36982;51.474;7.228;2024-03-17T04:35:15;4.50;;;2.87;;
50968;SDS011;36982;51.474;7.228;2024-03-17T04:37:41;8.97;;;2.97;;
50968;SDS011;36982;51.474;7.228;2024-03-17T04:40:07;7.27;;;3.07;;
50968;SDS011;36982;51.474;7.228;2024-03-17T04:42:36;4.20;;;2.47;;
50968;SDS011;36982;51.474;7.228;2024-03-17T04:45:03;6.00;;;3.27;;
50968;SDS011;36982;51.474;7.228;2024-03-17T04:47:30;9.07;;;3.77;;
50968;SDS011;36982;51.474;7.228;2024-03-17T04:49:56;5.67;;;3.57;;
50968;SDS011;36982;51.474;7.228;2024-03-17T04:52:21;6.07;;;4.10;;
50968;SDS011;36982;51.474;7.228;2024-03-17T04:54:47;5.27;;;3.30;;
50968;SDS011;36982;51.474;7.228;2024-03-17T04:57:12;7.53;;;4.20;;
50968;SDS011;36982;51.474;7.228;2024-03-17T04:59:38;7.60;;;3.57;;
50968;SDS011;36982;51.474;7.228;2024-03-17T05:02:04;6.17;;;3.57;;
50968;SDS011;36982;51.474;7.228;2024-03-17T05:04:30;6.43;;;4.07;;
50968;SDS011;36982;51.474;7.228;2024-03-17T05:06:56;5.37;;;3.40;;
50968;SDS011;36982;51.474;7.228;2024-03-17T05:09:22;7.23;;;4.17;;
50968;SDS011;36982;51.474;7.228;2024-03-17T05:11:49;7.23;;;4.47;;
50968;SDS011;36982;51.474;7.228;2024-03-17T05:14:17;9.17;;;3.73;;
50968;SDS011;36982;51.474;7.228;2024-03-17T05:16:44;7.67;;;3.90;;
50968;SDS011;36982;51.474;7.228;2024-03-17T05:19:10;7.43;;;3.80;;
50968;SDS011;36982;51.474;7.228;2024-03-17T05:21:36;6.83;;;4.00;;
50968;SDS011;36982;51.474;7.228;2024-03-17T05:24:02;10.07;;;4.30;;
50968;SDS011;36982;51.474;7.228;2024-03-17T05:26:28;5.90;;;3.80;;
50968;SDS011;36982;51.474;7.228;2024-03-17T05:28:55;6.50;;;3.67;;
50968;SDS011;36982;51.474;7.228;2024-03-17T05:31:21;10.47;;;4.40;;
50968;SDS011;36982;51.474;7.228;2024-03-17T05:33:47;6.57;;;4.00;;
50968;SDS011;36982;51.474;7.228;2024-03-17T05:36:13;7.80;;;4.00;;
50968;SDS011;36982;51.474;7.228;2024-03-17T05:38:39;6.87;;;4.47;;
50968;SDS011;36982;51.474;7.228;2024-03-17T05:41:05;8.40;;;4.37;;
50968;SDS011;36982;51.474;7.228;2024-03-17T05:43:34;9.83;;;5.30;;
50968;SDS011;36982;51.474;7.228;2024-03-17T05:46:07;9.13;;;4.90;;
50968;SDS011;36982;51.474;7.228;2024-03-17T05:48:34;9.10;;;5.00;;
50968;SDS011;36982;51.474;7.228;2024-03-17T05:51:03;7.77;;;4.77;;
50968;SDS011;36982;51.474;7.228;2024-03-17T05:53:32;8.57;;;4.77;;
50968;SDS011;36982;51.474;7.228;2024-03-17T05:55:59;10.07;;;5.23;;
50968;SDS011;36982;51.474;7.228;2024-03-17T05:58:25;9.20;;;5.13;;
50968;SDS011;36982;51.474;7.228;2024-03-17T06:00:51;8.83;;;4.70;;
50968;SDS011;36982;51.474;7.228;2024-03-17T06:06:03;9.33;;;4.73;;
50968;SDS011;36982;51.474;7.228;2024-03-17T06:08:29;7.20;;;4.60;;
50968;SDS011;36982;51.474;7.228;2024-03-17T06:10:55;7.83;;;4.60;;
50968;SDS011;36982;51.474;7.228;2024-03-17T06:13:25;6.90;;;4.57;;
50968;SDS011;36982;51.474;7.228;2024-03-17T06:15:53;8.93;;;5.20;;
50968;SDS011;36982;51.474;7.228;2024-03-17T06:18:19;10.90;;;4.63;;
50968;SDS011;36982;51.474;7.228;2024-03-17T06:20:45;7.83;;;4.70;;
50968;SDS011;36982;51.474;7.228;2024-03-17T06:23:12;8.27;;;4.70;;
50968;SDS011;36982;51.474;7.228;2024-03-17T06:25:45;12.73;;;5.43;;
50968;SDS011;36982;51.474;7.228;2024-03-17T06:28:12;9.47;;;4.90;;
50968;SDS011;36982;51.474;7.228;2024-03-17T06:30:42;10.07;;;5.70;;
50968;SDS011;36982;51.474;7.228;2024-03-17T06:33:10;9.07;;;4.80;;
50968;SDS011;36982;51.474;7.228;2024-03-17T06:35:37;7.87;;;4.80;;
50968;SDS011;36982;51.474;7.228;2024-03-17T06:38:03;8.33;;;4.50;;
50968;SDS011;36982;51.474;7.228;2024-03-17T06:40:29;7.93;;;5.33;;
50968;SDS011;36982;51.474;7.228;2024-03-17T06:42:55;8.03;;;4.70;;
50968;SDS011;36982;51.474;7.228;2024-03-17T06:45:21;11.90;;;5.40;;
50968;SDS011;36982;51.474;7.228;2024-03-17T06:47:47;8.10;;;5.20;;
50968;SDS011;36982;51.474;7.228;2024-03-17T06:50:14;8.50;;;5.13;;
50968;SDS011;36982;51.474;7.228;2024-03-17T06:52:39;8.93;;;5.17;;
50968;SDS011;36982;51.474;7.228;2024-03-17T06:55:05;7.50;;;4.83;;
50968;SDS011;36982;51.474;7.228;2024-03-17T06:57:32;8.90;;;4.73;;
50968;SDS011;36982;51.474;7.228;2024-03-17T06:59:58;10.33;;;5.17;;
50968;SDS011;36982;51.474;7.228;2024-03-17T07:02:24;6.60;;;4.77;;
50968;SDS011;36982;51.474;7.228;2024-03-17T07:04:50;9.00;;;4.80;;
50968;SDS011;36982;51.474;7.228;2024-03-17T07:07:16;7.20;;;4.30;;
50968;SDS011;36982;51.474;7.228;2024-03-17T07:09:41;7.23;;;3.90;;
50968;SDS011;36982;51.474;7.228;2024-03-17T07:12:07;7.63;;;4.43;;
50968;SDS011;36982;51.474;7.228;2024-03-17T07:14:34;6.07;;;3.93;;
50968;SDS011;36982;51.474;7.228;2024-03-17T07:17:00;6.27;;;4.03;;
50968;SDS011;36982;51.474;7.228;2024-03-17T07:19:25;8.50;;;4.23;;
50968;SDS011;36982;51.474;7.228;2024-03-17T07:21:51;7.20;;;4.20;;
50968;SDS011;36982;51.474;7.228;2024-03-17T07:24:17;8.97;;;4.30;;
50968;SDS011;36982;51.474;7.228;2024-03-17T07:26:42;5.50;;;3.90;;
50968;SDS011;36982;51.474;7.228;2024-03-17T07:29:08;5.90;;;3.70;;
50968;SDS011;36982;51.474;7.228;2024-03-17T07:31:34;7.10;;;3.53;;
50968;SDS011;36982;51.474;7.228;2024-03-17T07:33:59;5.77;;;3.83;;
50968;SDS011;36982;51.474;7.228;2024-03-17T07:36:25;5.67;;;3.90;;
50968;SDS011;36982;51.474;7.228;2024-03-17T07:38:50;8.27;;;3.40;;
50968;SDS011;36982;51.474;7.228;2024-03-17T07:41:17;6.60;;;3.83;;
50968;SDS011;36982;51.474;7.228;2024-03-17T07:43:44;5.87;;;3.70;;
50968;SDS011;36982;51.474;7.228;2024-03-17T07:46:10;5.60;;;3.47;;
50968;SDS011;36982;51.474;7.228;2024-03-17T07:48:37;6.67;;;3.50;;
50968;SDS011;36982;51.474;7.228;2024-03-17T07:51:08;5.40;;;3.63;;
50968;SDS011;36982;51.474;7.228;2024-03-17T07:53:38;4.87;;;3.07;;
50968;SDS011;36982;51.474;7.228;2024-03-17T07:56:10;5.93;;;2.80;;
50968;SDS011;36982;51.474;7.228;2024-03-17T07:58:40;5.00;;;2.70;;
50968;SDS011;36982;51.474;7.228;2024-03-17T08:01:08;4.40;;;2.50;;
50968;SDS011;36982;51.474;7.228;2024-03-17T08:03:38;4.83;;;2.57;;
50968;SDS011;36982;51.474;7.228;2024-03-17T08:06:05;4.33;;;2.33;;
50968;SDS011;36982;51.474;7.228;2024-03-17T08:08:32;3.07;;;2.43;;
50968;SDS011;36982;51.474;7.228;2024-03-17T08:10:58;5.30;;;2.20;;
50968;SDS011;36982;51.474;7.228;2024-03-17T08:13:24;3.80;;;2.00;;
50968;SDS011;36982;51.474;7.228;2024-03-17T08:15:57;3.80;;;2.70;;
50968;SDS011;36982;51.474;7.228;2024-03-17T08:18:27;2.80;;;2.13;;
50968;SDS011;36982;51.474;7.228;2024-03-17T08:20:53;3.33;;;2.10;;
50968;SDS011;36982;51.474;7.228;2024-03-17T08:23:20;3.60;;;2.40;;
50968;SDS011;36982;51.474;7.228;2024-03-17T08:25:53;3.60;;;2.13;;
50968;SDS011;36982;51.474;7.228;2024-03-17T08:28:23;3.13;;;1.90;;
50968;SDS011;36982;51.474;7.228;2024-03-17T08:30:53;3.67;;;2.30;;
50968;SDS011;36982;51.474;7.228;2024-03-17T08:33:23;4.27;;;2.10;;
50968;SDS011;36982;51.474;7.228;2024-03-17T08:36:02;2.07;;;1.60;;
50968;SDS011;36982;51.474;7.228;2024-03-17T08:38:30;2.03;;;1.63;;
50968;SDS011;36982;51.474;7.228;2024-03-17T08:40:57;2.83;;;1.87;;
50968;SDS011;36982;51.474;7.228;2024-03-17T08:43:26;4.03;;;1.93;;
50968;SDS011;36982;51.474;7.228;2024-03-17T08:46:10;6.30;;;2.10;;
50968;SDS011;36982;51.474;7.228;2024-03-17T08:48:38;3.23;;;2.00;;
50968;SDS011;36982;51.474;7.228;2024-03-17T08:51:05;2.60;;;1.70;;
50968;SDS011;36982;51.474;7.228;2024-03-17T08:53:32;3.73;;;1.87;;
50968;SDS011;36982;51.474;7.228;2024-03-17T08:55:58;2.97;;;1.80;;
50968;SDS011;36982;51.474;7.228;2024-03-17T08:58:25;3.20;;;1.90;;
50968;SDS011;36982;51.474;7.228;2024-03-17T09:00:51;3.57;;;1.80;;
50968;SDS011;36982;51.474;7.228;2024-03-17T09:03:17;2.87;;;1.63;;
50968;SDS011;36982;51.474;7.228;2024-03-17T09:05:44;3.50;;;2.20;;
50968;SDS011;36982;51.474;7.228;2024-03-17T09:08:15;3.17;;;2.00;;
50968;SDS011;36982;51.474;7.228;2024-03-17T09:10:45;2.83;;;1.67;;
50968;SDS011;36982;51.474;7.228;2024-03-17T09:13:15;3.10;;;1.83;;
50968;SDS011;36982;51.474;7.228;2024-03-17T09:18:27;3.33;;;1.90;;
50968;SDS011;36982;51.474;7.228;2024-03-17T09:21:12;3.10;;;2.00;;
50968;SDS011;36982;51.474;7.228;2024-03-17T09:23:39;4.10;;;2.20;;
50968;SDS011;36982;51.474;7.228;2024-03-17T09:26:05;5.00;;;1.80;;
50968;SDS011;36982;51.474;7.228;2024-03-17T09:28:33;2.40;;;1.60;;
50968;SDS011;36982;51.474;7.228;2024-03-17T09:30:59;2.90;;;2.00;;
50968;SDS011;36982;51.474;7.228;2024-03-17T09:33:26;2.67;;;1.80;;
50968;SDS011;36982;51.474;7.228;2024-03-17T09:35:56;2.73;;;2.00;;
50968;SDS011;36982;51.474;7.228;2024-03-17T09:38:23;2.10;;;1.80;;
50968;SDS011;36982;51.474;7.228;2024-03-17T09:40:49;4.33;;;2.40;;
50968;SDS011;36982;51.474;7.228;2024-03-17T09:43:18;3.57;;;2.20;;
50968;SDS011;36982;51.474;7.228;2024-03-17T09:45:47;2.30;;;2.10;;
50968;SDS011;36982;51.474;7.228;2024-03-17T09:48:14;2.63;;;1.83;;
50968;SDS011;36982;51.474;7.228;2024-03-17T09:50:43;4.17;;;2.07;;
50968;SDS011;36982;51.474;7.228;2024-03-17T09:53:17;2.67;;;2.20;;
50968;SDS011;36982;51.474;7.228;2024-03-17T09:55:50;3.17;;;2.00;;
50968;SDS011;36982;51.474;7.228;2024-03-17T09:58:16;4.83;;;2.40;;
50968;SDS011;36982;51.474;7.228;2024-03-17T10:00:45;3.23;;;1.90;;
50968;SDS011;36982;51.474;7.228;2024-03-17T10:03:11;3.20;;;1.90;;
50968;SDS011;36982;51.474;7.228;2024-03-17T10:05:37;3.10;;;2.20;;
50968;SDS011;36982;51.474;7.228;2024-03-17T10:08:03;3.27;;;2.17;;
50968;SDS011;36982;51.474;7.228;2024-03-17T10:10:29;2.97;;;2.10;;
50968;SDS011;36982;51.474;7.228;2024-03-17T10:12:55;4.00;;;2.20;;
50968;SDS011;36982;51.474;7.228;2024-03-17T10:15:21;4.07;;;2.40;;
50968;SDS011;36982;51.474;7.228;2024-03-17T10:17:46;3.17;;;2.03;;
50968;SDS011;36982;51.474;7.228;2024-03-17T10:20:16;2.70;;;1.83;;
50968;SDS011;36982;51.474;7.228;2024-03-17T10:23:01;3.47;;;2.00;;
50968;SDS011;36982;51.474;7.228;2024-03-17T10:25:30;3.17;;;2.57;;
50968;SDS011;36982;51.474;7.228;2024-03-17T10:27:56;4.03;;;2.47;;
50968;SDS011;36982;51.474;7.228;2024-03-17T10:30:23;3.50;;;1.93;;
50968;SDS011;36982;51.474;7.228;2024-03-17T10:32:58;2.40;;;2.10;;
50968;SDS011;36982;51.474;7.228;2024-03-17T10:35:32;5.13;;;2.00;;
50968;SDS011;36982;51.474;7.228;2024-03-17T10:38:00;3.63;;;2.50;;
50968;SDS011;36982;51.474;7.228;2024-03-17T10:40:27;3.10;;;2.27;;
50968;SDS011;36982;51.474;7.228;2024-03-17T10:42:55;4.40;;;2.23;;
50968;SDS011;36982;51.474;7.228;2024-03-17T10:45:21;4.53;;;1.93;;
50968;SDS011;36982;51.474;7.228;2024-03-17T10:47:48;3.17;;;1.73;;
50968;SDS011;36982;51.474;7.228;2024-03-17T10:50:19;3.50;;;2.10;;
50968;SDS011;36982;51.474;7.228;2024-03-17T10:52:48;3.43;;;1.93;;
50968;SDS011;36982;51.474;7.228;2024-03-17T10:55:20;4.03;;;2.00;;
50968;SDS011;36982;51.474;7.228;2024-03-17T10:57:47;3.43;;;2.07;;
50968;SDS011;36982;51.474;7.228;2024-03-17T11:00:16;4.70;;;2.30;;
50968;SDS011;36982;51.474;7.228;2024-03-17T11:02:43;4.23;;;2.30;;
50968;SDS011;36982;51.474;7.228;2024-03-17T11:07:44;4.00;;;1.90;;
50968;SDS011;36982;51.474;7.228;2024-03-17T11:10:15;4.57;;;2.30;;
50968;SDS011;36982;51.474;7.228;2024-03-17T11:17:49;3.03;;;2.13;;
50968;SDS011;36982;51.474;7.228;2024-03-17T11:20:26;3.50;;;2.10;;
50968;SDS011;36982;51.474;7.228;2024-03-17T11:23:02;4.00;;;2.30;;
50968;SDS011;36982;51.474;7.228;2024-03-17T11:27:56;3.20;;;2.20;;
50968;SDS011;36982;51.474;7.228;2024-03-17T11:31:05;2.07;;;1.77;;
50968;SDS011;36982;51.474;7.228;2024-03-17T11:39:01;4.37;;;2.60;;
50968;SDS011;36982;51.474;7.228;2024-03-17T11:41:50;4.20;;;2.23;;
50968;SDS011;36982;51.474;7.228;2024-03-17T11:49:19;2.80;;;2.07;;
50968;SDS011;36982;51.474;7.228;2024-03-17T11:51:46;2.73;;;1.93;;
50968;SDS011;36982;51.474;7.228;2024-03-17T11:54:13;5.43;;;2.50;;
50968;SDS011;36982;51.474;7.228;2024-03-17T11:57:06;3.57;;;2.30;;
50968;SDS011;36982;51.474;7.228;2024-03-17T11:59:32;3.27;;;2.40;;
50968;SDS011;36982;51.474;7.228;2024-03-17T12:01:58;3.37;;;2.20;;
50968;SDS011;36982;51.474;7.228;2024-03-17T12:04:25;3.57;;;2.07;;
50968;SDS011;36982;51.474;7.228;2024-03-17T12:09:24;4.53;;;2.30;;
50968;SDS011;36982;51.474;7.228;2024-03-17T12:12:11;2.00;;;1.80;;
50968;SDS011;36982;51.474;7.228;2024-03-17T12:14:39;3.87;;;2.40;;
50968;SDS011;36982;51.474;7.228;2024-03-17T12:17:06;3.73;;;2.13;;
50968;SDS011;36982;51.474;7.228;2024-03-17T12:19:33;4.83;;;2.50;;
50968;SDS011;36982;51.474;7.228;2024-03-17T12:21:59;2.93;;;2.30;;
50968;SDS011;36982;51.474;7.228;2024-03-17T12:24:30;3.47;;;2.40;;
50968;SDS011;36982;51.474;7.228;2024-03-17T12:26:57;3.80;;;2.70;;
50968;SDS011;36982;51.474;7.228;2024-03-17T12:31:58;4.60;;;2.67;;
50968;SDS011;36982;51.474;7.228;2024-03-17T12:34:33;3.73;;;2.17;;
50968;SDS011;36982;51.474;7.228;2024-03-17T12:36:59;3.37;;;2.10;;
50968;SDS011;36982;51.474;7.228;2024-03-17T12:39:29;3.30;;;2.27;;
50968;SDS011;36982;51.474;7.228;2024-03-17T12:44:47;5.23;;;2.80;;
50968;SDS011;36982;51.474;7.228;2024-03-17T12:47:20;3.43;;;2.37;;
50968;SDS011;36982;51.474;7.228;2024-03-17T12:49:56;4.03;;;2.53;;
50968;SDS011;36982;51.474;7.228;2024-03-17T12:52:34;3.83;;;2.17;;
50968;SDS011;36982;51.474;7.228;2024-03-17T12:55:01;3.73;;;2.70;;
50968;SDS011;36982;51.474;7.228;2024-03-17T12:58:13;3.60;;;2.50;;
50968;SDS011;36982;51.474;7.228;2024-03-17T13:03:31;5.03;;;2.67;;
50968;SDS011;36982;51.474;7.228;2024-03-17T13:05:59;4.20;;;2.83;;
50968;SDS011;36982;51.474;7.228;2024-03-17T13:08:26;4.00;;;2.50;;
50968;SDS011;36982;51.474;7.228;2024-03-17T13:10:52;4.07;;;2.50;;
50968;SDS011;36982;51.474;7.228;2024-03-17T13:13:17;2.50;;;1.90;;
50968;SDS011;36982;51.474;7.228;2024-03-17T13:15:43;6.60;;;2.13;;
50968;SDS011;36982;51.474;7.228;2024-03-17T13:18:09;4.20;;;2.10;;
50968;SDS011;36982;51.474;7.228;2024-03-17T13:20:40;3.47;;;2.20;;
50968;SDS011;36982;51.474;7.228;2024-03-17T13:23:06;3.23;;;2.37;;
50968;SDS011;36982;51.474;7.228;2024-03-17T13:25:33;4.07;;;2.63;;
50968;SDS011;36982;51.474;7.228;2024-03-17T13:28:01;3.67;;;1.80;;
50968;SDS011;36982;51.474;7.228;2024-03-17T13:30:28;2.47;;;1.77;;
50968;SDS011;36982;51.474;7.228;2024-03-17T13:32:55;2.47;;;2.07;;
50968;SDS011;36982;51.474;7.228;2024-03-17T13:35:23;2.73;;;2.17;;
50968;SDS011;36982;51.474;7.228;2024-03-17T13:37:51;2.60;;;2.20;;
50968;SDS011;36982;51.474;7.228;2024-03-17T13:40:19;2.70;;;1.90;;
50968;SDS011;36982;51.474;7.228;2024-03-17T13:42:46;2.67;;;1.67;;
50968;SDS011;36982;51.474;7.228;2024-03-17T13:45:16;3.83;;;2.43;;
50968;SDS011;36982;51.474;7.228;2024-03-17T13:47:49;2.10;;;1.90;;
50968;SDS011;36982;51.474;7.228;2024-03-17T13:50:18;2.87;;;2.00;;
50968;SDS011;36982;51.474;7.228;2024-03-17T13:52:43;3.17;;;1.70;;
50968;SDS011;36982;51.474;7.228;2024-03-17T13:55:14;5.93;;;2.17;;
50968;SDS011;36982;51.474;7.228;2024-03-17T13:57:45;2.30;;;1.60;;
50968;SDS011;36982;51.474;7.228;2024-03-17T14:00:12;2.47;;;1.73;;
50968;SDS011;36982;51.474;7.228;2024-03-17T14:02:43;2.10;;;1.40;;
50968;SDS011;36982;51.474;7.228;2024-03-17T14:05:10;2.30;;;1.47;;
50968;SDS011;36982;51.474;7.228;2024-03-17T14:07:37;4.10;;;1.60;;
50968;SDS011;36982;51.474;7.228;2024-03-17T14:10:04;2.07;;;1.70;;
50968;SDS011;36982;51.474;7.228;2024-03-17T14:12:30;2.95;;;1.50;;
50968;SDS011;36982;51.474;7.228;2024-03-17T14:14:56;2.53;;;1.77;;
50968;SDS011;36982;51.474;7.228;2024-03-17T14:17:22;2.70;;;1.90;;
50968;SDS011;36982;51.474;7.228;2024-03-17T14:19:48;2.10;;;1.77;;
50968;SDS011;36982;51.474;7.228;2024-03-17T14:22:13;4.37;;;2.08;;
50968;SDS011;36982;51.474;7.228;2024-03-17T14:24:39;4.25;;;1.73;;
50968;SDS011;36982;51.474;7.228;2024-03-17T14:27:05;3.47;;;1.80;;
50968;SDS011;36982;51.474;7.228;2024-03-17T14:29:31;3.33;;;1.83;;
50968;SDS011;36982;51.474;7.228;2024-03-17T14:31:57;2.10;;;1.90;;
50968;SDS011;36982;51.474;7.228;2024-03-17T14:34:22;3.63;;;1.60;;
50968;SDS011;36982;51.474;7.228;2024-03-17T14:36:48;3.30;;;1.60;;
50968;SDS011;36982;51.474;7.228;2024-03-17T14:39:13;3.03;;;1.57;;
50968;SDS011;36982;51.474;7.228;2024-03-17T14:41:39;3.27;;;1.47;;
50968;SDS011;36982;51.474;7.228;2024-03-17T14:44:04;2.20;;;1.67;;
50968;SDS011;36982;51.474;7.228;2024-03-17T14:46:30;2.77;;;1.80;;
50968;SDS011;36982;51.474;7.228;2024-03-17T14:48:56;3.80;;;1.80;;
50968;SDS011;36982;51.474;7.228;2024-03-17T14:51:22;2.50;;;1.67;;
50968;SDS011;36982;51.474;7.228;2024-03-17T14:53:48;5.70;;;1.60;;
50968;SDS011;36982;51.474;7.228;2024-03-17T14:56:16;3.70;;;1.50;;
50968;SDS011;36982;51.474;7.228;2024-03-17T14:58:42;2.70;;;1.33;;
50968;SDS011;36982;51.474;7.228;2024-03-17T15:01:08;1.87;;;1.37;;
50968;SDS011;36982;51.474;7.228;2024-03-17T15:03:35;1.77;;;1.20;;
50968;SDS011;36982;51.474;7.228;2024-03-17T15:06:01;3.00;;;1.50;;
50968;SDS011;36982;51.474;7.228;2024-03-17T15:08:29;1.60;;;1.27;;
50968;SDS011;36982;51.474;7.228;2024-03-17T15:10:55;2.83;;;1.20;;
50968;SDS011;36982;51.474;7.228;2024-03-17T15:13:21;1.93;;;1.27;;
50968;SDS011;36982;51.474;7.228;2024-03-17T15:15:48;2.03;;;1.17;;
50968;SDS011;36982;51.474;7.228;2024-03-17T15:18:14;2.95;;;1.30;;
50968;SDS011;36982;51.474;7.228;2024-03-17T15:20:41;2.23;;;1.30;;
50968;SDS011;36982;51.474;7.228;2024-03-17T15:23:06;1.70;;;1.27;;
50968;SDS011;36982;51.474;7.228;2024-03-17T15:25:32;3.47;;;1.43;;
50968;SDS011;36982;51.474;7.228;2024-03-17T15:27:58;1.87;;;1.13;;
50968;SDS011;36982;51.474;7.228;2024-03-17T15:30:26;1.45;;;1.30;;